createdAt,value
2019-05-19T00:01:44.982Z,4.60
2019-05-19T00:04:12.833Z,6.45
2019-05-19T00:06:40.850Z,6.78
2019-05-19T00:09:08.956Z,5.85
2019-05-19T00:11:36.851Z,5.92
2019-05-19T00:14:04.791Z,6.15
2019-05-19T00:16:32.795Z,6.47
2019-05-19T00:19:02.068Z,5.78
2019-05-19T00:21:30.380Z,5.80
2019-05-19T00:23:59.912Z,5.20
2019-05-19T00:26:28.164Z,4.47
2019-05-19T00:28:56.385Z,5.05
2019-05-19T00:31:24.257Z,5.40
2019-05-19T00:33:52.222Z,4.25
2019-05-19T00:36:20.115Z,4.83
2019-05-19T00:38:48.029Z,4.55
2019-05-19T00:41:15.935Z,4.87
2019-05-19T00:43:44.170Z,4.45
2019-05-19T00:46:12.049Z,3.65
2019-05-19T00:48:39.920Z,4.65
2019-05-19T00:51:08.496Z,4.47
2019-05-19T00:53:36.627Z,4.20
2019-05-19T00:56:04.552Z,5.83
2019-05-19T00:58:34.039Z,5.12
2019-05-19T01:01:02.043Z,4.12
2019-05-19T01:03:29.931Z,3.87
2019-05-19T01:05:57.885Z,4.40
2019-05-19T01:08:25.967Z,4.55
2019-05-19T01:10:53.821Z,3.98
2019-05-19T01:13:22.144Z,4.40
2019-05-19T01:15:50.007Z,3.95
2019-05-19T01:18:36.067Z,4.45
2019-05-19T01:21:03.889Z,3.80
2019-05-19T01:23:32.240Z,4.20
2019-05-19T01:26:00.103Z,4.30
2019-05-19T01:28:28.418Z,4.08
2019-05-19T01:30:56.316Z,3.10
2019-05-19T01:33:24.292Z,3.65
2019-05-19T01:35:52.146Z,3.45
2019-05-19T01:38:20.206Z,3.70
2019-05-19T01:40:48.096Z,3.50
2019-05-19T01:43:16.041Z,4.47
2019-05-19T01:45:44.380Z,4.55
2019-05-19T01:48:12.293Z,3.60
2019-05-19T01:50:40.348Z,4.40
2019-05-19T01:53:08.316Z,5.97
2019-05-19T01:55:36.390Z,5.25
2019-05-19T01:58:04.793Z,5.30
2019-05-19T02:00:32.775Z,6.15
2019-05-19T02:03:00.769Z,6.25
2019-05-19T02:05:28.755Z,5.47
2019-05-19T02:07:56.591Z,5.60
2019-05-19T02:10:24.438Z,5.42
2019-05-19T02:12:52.469Z,5.08
2019-05-19T02:15:20.363Z,6.78
2019-05-19T02:17:48.499Z,7.45
2019-05-19T02:20:31.669Z,7.55
2019-05-19T02:22:47.542Z,9.90
2019-05-19T02:25:16.128Z,10.20
2019-05-19T02:27:44.409Z,11.75
2019-05-19T02:30:12.754Z,12.03
2019-05-19T02:32:40.744Z,10.68
2019-05-19T02:35:08.743Z,10.08
2019-05-19T02:37:36.609Z,10.48
2019-05-19T02:40:05.907Z,9.45
2019-05-19T02:42:37.567Z,8.55
2019-05-19T02:45:06.007Z,7.92
2019-05-19T02:47:34.850Z,7.75
2019-05-19T02:50:04.046Z,8.85
2019-05-19T02:52:32.704Z,7.75
2019-05-19T02:55:01.444Z,8.83
2019-05-19T02:57:30.709Z,8.95
2019-05-19T02:59:59.163Z,8.48
2019-05-19T03:02:27.155Z,8.70
2019-05-19T03:04:55.135Z,7.35
2019-05-19T03:07:23.030Z,8.70
2019-05-19T03:09:50.961Z,9.00
2019-05-19T03:12:19.465Z,8.05
2019-05-19T03:14:47.365Z,8.70
2019-05-19T03:17:15.253Z,8.33
2019-05-19T03:19:43.142Z,8.40
2019-05-19T03:22:11.192Z,7.83
2019-05-19T03:24:39.186Z,7.95
2019-05-19T03:27:07.194Z,9.00
2019-05-19T03:29:39.809Z,9.40
2019-05-19T03:32:18.787Z,8.28
2019-05-19T03:34:46.947Z,14.47
2019-05-19T03:37:14.879Z,7.35
2019-05-19T03:39:43.090Z,8.20
2019-05-19T03:42:11.127Z,8.05
2019-05-19T03:44:39.086Z,8.70
2019-05-19T03:47:07.300Z,8.78
2019-05-19T03:49:35.755Z,8.60
2019-05-19T03:52:03.795Z,7.87
2019-05-19T03:54:31.694Z,9.63
2019-05-19T03:56:59.584Z,9.93
2019-05-19T03:59:27.990Z,11.20
2019-05-19T04:01:56.510Z,9.95
2019-05-19T04:04:24.599Z,9.63
2019-05-19T04:06:53.010Z,7.40
2019-05-19T04:09:20.911Z,6.50
2019-05-19T04:11:48.911Z,7.10
2019-05-19T04:14:16.797Z,6.80
2019-05-19T04:16:44.697Z,7.72
2019-05-19T04:19:12.772Z,7.45
2019-05-19T04:21:48.995Z,7.80
2019-05-19T04:24:11.221Z,8.63
2019-05-19T04:26:39.234Z,8.93
2019-05-19T04:29:07.133Z,9.78
2019-05-19T04:31:35.002Z,9.83
2019-05-19T04:34:02.907Z,11.75
2019-05-19T04:36:31.037Z,10.45
2019-05-19T04:38:59.156Z,10.35
2019-05-19T04:41:27.107Z,11.12
2019-05-19T04:43:55.016Z,9.60
2019-05-19T04:46:22.951Z,10.40
2019-05-19T04:48:50.898Z,9.73
2019-05-19T04:51:18.905Z,10.32
2019-05-19T04:53:46.800Z,11.15
2019-05-19T04:56:15.285Z,12.30
2019-05-19T04:58:43.530Z,11.90
2019-05-19T05:01:11.457Z,12.73
2019-05-19T05:03:39.808Z,11.30
2019-05-19T05:06:07.722Z,11.95
2019-05-19T05:08:35.738Z,11.00
2019-05-19T05:11:03.721Z,11.08
2019-05-19T05:13:31.675Z,12.58
2019-05-19T05:15:59.560Z,12.37
2019-05-19T05:18:27.526Z,12.33
2019-05-19T05:20:55.832Z,11.70
2019-05-19T05:23:23.753Z,13.18
2019-05-19T05:25:51.797Z,13.72
2019-05-19T05:28:19.870Z,13.68
2019-05-19T05:30:48.149Z,13.45
2019-05-19T05:33:16.029Z,11.40
2019-05-19T05:35:44.009Z,11.90
2019-05-19T05:38:11.931Z,13.00
2019-05-19T05:40:39.761Z,11.93
2019-05-19T05:43:07.715Z,12.28
2019-05-19T05:45:36.527Z,12.50
2019-05-19T05:48:04.446Z,13.45
2019-05-19T05:50:32.424Z,15.18
2019-05-19T05:53:00.765Z,16.50
2019-05-19T05:55:28.719Z,16.05
2019-05-19T05:57:56.792Z,15.25
2019-05-19T06:00:24.750Z,15.63
2019-05-19T06:02:52.826Z,15.32
2019-05-19T06:05:20.941Z,14.73
2019-05-19T06:07:48.932Z,15.93
2019-05-19T06:10:17.938Z,15.23
2019-05-19T06:12:46.028Z,15.38
2019-05-19T06:15:13.980Z,16.20
2019-05-19T06:17:41.962Z,17.20
2019-05-19T06:20:10.130Z,16.60
2019-05-19T06:22:54.730Z,17.80
2019-05-19T06:25:08.222Z,16.80
2019-05-19T06:27:36.524Z,17.05
2019-05-19T06:30:08.502Z,18.45
2019-05-19T06:32:45.475Z,19.90
2019-05-19T06:35:14.082Z,20.30
2019-05-19T06:37:41.936Z,19.48
2019-05-19T06:40:09.932Z,18.25
2019-05-19T06:42:37.918Z,17.90
2019-05-19T06:45:07.011Z,18.27
2019-05-19T06:47:35.078Z,18.00
2019-05-19T06:50:03.966Z,19.30
2019-05-19T06:52:31.948Z,18.95
2019-05-19T06:55:00.472Z,18.40
2019-05-19T06:57:28.594Z,19.37
2019-05-19T06:59:56.583Z,18.40
2019-05-19T07:02:24.505Z,19.60
2019-05-19T07:04:52.348Z,18.55
2019-05-19T07:07:20.220Z,18.70
2019-05-19T07:09:57.985Z,19.75
2019-05-19T07:12:18.325Z,20.10
2019-05-19T07:14:47.035Z,22.98
2019-05-19T07:17:15.099Z,22.98
2019-05-19T07:19:43.119Z,23.90
2019-05-19T07:22:11.205Z,23.95
2019-05-19T07:24:39.200Z,24.12
2019-05-19T07:27:07.318Z,23.87
2019-05-19T07:29:35.830Z,24.72
2019-05-19T07:32:03.718Z,22.65
2019-05-19T07:34:31.912Z,21.60
2019-05-19T07:37:00.240Z,22.70
2019-05-19T07:39:28.663Z,22.00
2019-05-19T07:41:56.648Z,21.50
2019-05-19T07:44:24.558Z,20.30
2019-05-19T07:46:52.938Z,18.73
2019-05-19T07:49:21.372Z,18.80
2019-05-19T07:51:49.430Z,21.10
2019-05-19T07:54:17.718Z,22.03
2019-05-19T07:56:45.750Z,19.73
2019-05-19T07:59:13.773Z,17.90
2019-05-19T08:01:41.758Z,17.60
2019-05-19T08:04:09.602Z,17.80
2019-05-19T08:06:37.559Z,20.05
2019-05-19T08:09:06.037Z,19.95
2019-05-19T08:11:34.158Z,23.92
2019-05-19T08:14:02.137Z,21.33
2019-05-19T08:16:30.156Z,23.12
2019-05-19T08:18:58.359Z,24.30
2019-05-19T08:21:26.526Z,22.90
2019-05-19T08:24:00.426Z,23.35
2019-05-19T08:26:25.072Z,22.25
2019-05-19T08:28:53.139Z,23.30
2019-05-19T08:31:21.147Z,23.42
2019-05-19T08:33:55.334Z,23.05
2019-05-19T08:36:23.280Z,23.77
2019-05-19T08:38:51.131Z,23.32
2019-05-19T08:41:19.061Z,22.77
2019-05-19T08:43:46.953Z,19.75
2019-05-19T08:46:14.885Z,20.60
2019-05-19T08:48:42.851Z,20.87
2019-05-19T08:51:11.180Z,20.10
2019-05-19T08:53:39.577Z,22.17
2019-05-19T08:56:07.777Z,20.00
2019-05-19T08:58:36.009Z,18.63
2019-05-19T09:01:04.108Z,16.70
2019-05-19T09:03:31.957Z,18.07
2019-05-19T09:06:00.206Z,19.43
2019-05-19T09:08:28.192Z,19.40
2019-05-19T09:10:56.756Z,20.50
2019-05-19T09:13:24.850Z,21.03
2019-05-19T09:15:52.845Z,21.27
2019-05-19T09:18:20.828Z,20.90
2019-05-19T09:20:49.113Z,18.80
2019-05-19T09:23:17.139Z,19.40
2019-05-19T09:25:45.028Z,21.20
2019-05-19T09:28:12.969Z,22.13
2019-05-19T09:30:41.125Z,23.50
2019-05-19T09:33:09.257Z,21.83
2019-05-19T09:35:37.588Z,23.30
2019-05-19T09:38:05.639Z,26.03
2019-05-19T09:40:33.849Z,26.57
2019-05-19T09:43:02.323Z,24.67
2019-05-19T09:45:30.289Z,24.73
2019-05-19T09:47:59.043Z,22.87
2019-05-19T09:50:27.412Z,23.17
2019-05-19T09:52:55.515Z,20.07
2019-05-19T09:55:23.612Z,19.77
2019-05-19T09:57:51.818Z,19.33
2019-05-19T10:00:20.190Z,19.00
2019-05-19T10:02:48.288Z,18.47
2019-05-19T10:05:16.475Z,19.13
2019-05-19T10:07:44.491Z,18.10
2019-05-19T10:10:16.996Z,17.80
2019-05-19T10:12:44.940Z,20.07
2019-05-19T10:15:14.117Z,16.53
2019-05-19T10:17:42.308Z,16.50
2019-05-19T10:20:11.700Z,16.87
2019-05-19T10:22:40.030Z,13.97
2019-05-19T10:25:21.541Z,11.60
2019-05-19T10:27:40.455Z,10.90
2019-05-19T10:30:09.317Z,10.03
2019-05-19T10:32:37.354Z,13.03
2019-05-19T10:35:05.920Z,11.73
2019-05-19T10:37:33.956Z,10.63
2019-05-19T10:40:02.413Z,9.20
2019-05-19T10:42:30.372Z,9.03
2019-05-19T10:44:58.430Z,10.13
2019-05-19T10:47:26.388Z,8.37
2019-05-19T10:49:54.344Z,9.23
2019-05-19T10:52:22.399Z,9.10
2019-05-19T10:54:50.556Z,8.93
2019-05-19T10:57:18.498Z,8.80
2019-05-19T10:59:46.483Z,8.57
2019-05-19T11:02:14.404Z,8.67
2019-05-19T11:04:42.351Z,9.17
2019-05-19T11:07:10.372Z,8.00
2019-05-19T11:09:38.419Z,7.10
2019-05-19T11:12:06.521Z,7.50
2019-05-19T11:14:34.526Z,5.53
2019-05-19T11:17:02.621Z,5.57
2019-05-19T11:19:30.526Z,5.23
2019-05-19T11:21:59.050Z,6.80
2019-05-19T11:24:27.241Z,7.73
2019-05-19T11:26:55.187Z,7.57
2019-05-19T11:29:23.144Z,7.60
2019-05-19T11:31:51.503Z,8.13
2019-05-19T11:34:19.542Z,8.60
2019-05-19T11:36:47.459Z,7.77
2019-05-19T11:39:15.499Z,8.67
2019-05-19T11:41:43.778Z,8.50
2019-05-19T11:44:12.149Z,7.40
2019-05-19T11:46:40.584Z,7.93
2019-05-19T11:49:08.701Z,8.20
2019-05-19T11:51:36.615Z,8.70
2019-05-19T11:54:04.964Z,6.77
2019-05-19T11:56:33.176Z,7.27
2019-05-19T11:59:01.104Z,8.13
2019-05-19T12:01:29.272Z,6.23
2019-05-19T12:03:57.182Z,6.27
2019-05-19T12:06:38.030Z,7.57
2019-05-19T12:08:55.248Z,7.30
2019-05-19T12:11:23.350Z,8.37
2019-05-19T12:13:51.308Z,7.97
2019-05-19T12:16:19.557Z,8.10
2019-05-19T12:18:47.546Z,8.10
2019-05-19T12:21:17.020Z,7.37
2019-05-19T12:23:44.959Z,6.90
2019-05-19T12:26:22.634Z,6.47
2019-05-19T12:28:42.701Z,6.73
2019-05-19T12:31:11.174Z,8.00
2019-05-19T12:33:51.135Z,6.43
2019-05-19T12:36:09.542Z,6.80
2019-05-19T12:38:37.618Z,7.27
2019-05-19T12:41:05.853Z,6.30
2019-05-19T12:43:33.845Z,6.40
2019-05-19T12:46:01.865Z,6.10
2019-05-19T12:48:29.704Z,5.40
2019-05-19T12:50:57.731Z,6.00
2019-05-19T12:53:25.696Z,6.10
2019-05-19T12:55:53.932Z,6.27
2019-05-19T12:58:21.908Z,6.00
2019-05-19T13:00:49.995Z,6.60
2019-05-19T13:03:17.978Z,6.47
2019-05-19T13:05:46.079Z,7.47
2019-05-19T13:08:14.301Z,6.10
2019-05-19T13:10:42.531Z,5.80
2019-05-19T13:13:10.995Z,5.63
2019-05-19T13:15:38.975Z,5.80
2019-05-19T13:18:07.072Z,5.50
2019-05-19T13:20:35.151Z,6.50
2019-05-19T13:23:03.203Z,5.07
2019-05-19T13:25:31.383Z,5.20
2019-05-19T13:27:59.764Z,5.13
2019-05-19T13:30:27.981Z,5.00
2019-05-19T13:32:57.089Z,5.63
2019-05-19T13:35:25.083Z,5.57
2019-05-19T13:37:53.028Z,4.90
2019-05-19T13:40:21.216Z,5.97
2019-05-19T13:42:49.752Z,5.37
2019-05-19T13:45:17.737Z,5.20
2019-05-19T13:47:46.128Z,5.30
2019-05-19T13:50:14.499Z,4.40
2019-05-19T13:52:42.596Z,4.07
2019-05-19T13:55:10.976Z,5.00
2019-05-19T13:57:38.882Z,4.30
2019-05-19T14:00:08.535Z,4.53
2019-05-19T14:02:36.500Z,4.63
2019-05-19T14:05:04.775Z,4.00
2019-05-19T14:07:32.869Z,5.00
2019-05-19T14:10:00.858Z,4.90
2019-05-19T14:12:29.663Z,4.40
2019-05-19T14:14:58.051Z,3.93
2019-05-19T14:17:26.956Z,4.03
2019-05-19T14:19:54.906Z,4.33
2019-05-19T14:22:22.992Z,4.30
2019-05-19T14:24:52.569Z,4.50
2019-05-19T14:27:29.212Z,4.77
2019-05-19T14:29:50.481Z,4.50
2019-05-19T14:32:18.488Z,4.00
2019-05-19T14:34:46.722Z,4.50
2019-05-19T14:37:15.215Z,4.50
2019-05-19T14:39:43.714Z,4.00
2019-05-19T14:42:15.797Z,4.50
2019-05-19T14:44:43.766Z,3.60
2019-05-19T14:47:11.708Z,3.80
2019-05-19T14:49:39.760Z,4.00
2019-05-19T14:52:07.672Z,3.77
2019-05-19T14:54:35.989Z,3.60
2019-05-19T14:57:04.076Z,4.10
2019-05-19T14:59:32.115Z,3.60
2019-05-19T15:02:00.188Z,2.70
2019-05-19T15:04:28.257Z,3.33
2019-05-19T15:06:56.245Z,3.40
2019-05-19T15:09:24.537Z,3.60
2019-05-19T15:11:53.107Z,3.80
2019-05-19T15:14:21.240Z,3.33
2019-05-19T15:16:49.217Z,3.33
2019-05-19T15:19:17.193Z,3.47
2019-05-19T15:21:45.302Z,3.47
2019-05-19T15:24:13.418Z,3.00
2019-05-19T15:26:41.734Z,3.10
2019-05-19T15:29:09.820Z,3.17
2019-05-19T15:31:37.715Z,3.27
2019-05-19T15:34:06.181Z,3.53
2019-05-19T15:36:34.291Z,2.90
2019-05-19T15:39:02.460Z,2.80
2019-05-19T15:41:30.493Z,3.47
2019-05-19T15:43:58.672Z,6.50
2019-05-19T15:46:26.880Z,3.27
2019-05-19T15:48:55.091Z,4.10
2019-05-19T15:51:29.089Z,3.50
2019-05-19T15:53:53.421Z,2.97
2019-05-19T15:56:21.758Z,3.20
2019-05-19T15:58:51.694Z,2.97
2019-05-19T16:01:19.665Z,3.70
2019-05-19T16:03:47.971Z,3.43
2019-05-19T16:06:15.942Z,2.80
2019-05-19T16:08:43.929Z,3.47
2019-05-19T16:11:12.281Z,3.10
2019-05-19T16:13:40.233Z,2.87
2019-05-19T16:16:08.181Z,3.03
2019-05-19T16:18:36.227Z,2.50
2019-05-19T16:21:04.381Z,3.27
2019-05-19T16:23:32.324Z,2.70
2019-05-19T16:26:00.573Z,2.43
2019-05-19T16:28:30.747Z,2.80
2019-05-19T16:30:58.512Z,2.77
2019-05-19T16:33:26.956Z,3.23
2019-05-19T16:35:55.655Z,2.87
2019-05-19T16:38:23.976Z,2.83
2019-05-19T16:40:52.237Z,3.43
2019-05-19T16:43:20.558Z,3.57
2019-05-19T16:45:50.421Z,3.20
2019-05-19T16:48:24.727Z,2.50
2019-05-19T16:50:52.750Z,3.07
2019-05-19T16:53:20.612Z,2.70
2019-05-19T16:55:48.772Z,2.93
2019-05-19T16:58:21.211Z,2.93
2019-05-19T17:00:46.899Z,3.00
2019-05-19T17:03:15.051Z,3.00
2019-05-19T17:05:43.337Z,2.73
2019-05-19T17:08:11.717Z,3.10
2019-05-19T17:10:39.806Z,2.47
2019-05-19T17:13:07.865Z,2.60
2019-05-19T17:15:35.955Z,2.70
2019-05-19T17:18:04.275Z,2.93
2019-05-19T17:20:32.541Z,2.07
2019-05-19T17:23:00.632Z,2.27
2019-05-19T17:25:29.702Z,2.07
2019-05-19T17:27:59.687Z,3.07
2019-05-19T17:30:27.823Z,2.10
2019-05-19T17:32:56.281Z,2.60
2019-05-19T17:35:24.368Z,2.30
2019-05-19T17:37:52.518Z,2.80
2019-05-19T17:40:21.109Z,2.63
2019-05-19T17:42:49.216Z,2.60
2019-05-19T17:45:17.269Z,2.63
2019-05-19T17:47:45.246Z,2.63
2019-05-19T17:50:16.902Z,2.63
2019-05-19T17:52:45.007Z,2.07
2019-05-19T17:55:13.045Z,2.77
2019-05-19T17:57:43.028Z,2.80
2019-05-19T18:00:12.518Z,2.90
2019-05-19T18:02:40.519Z,2.30
2019-05-19T18:05:09.007Z,3.53
2019-05-19T18:07:37.326Z,2.70
2019-05-19T18:10:06.272Z,2.63
2019-05-19T18:12:34.649Z,2.80
2019-05-19T18:15:03.492Z,3.00
2019-05-19T18:17:31.563Z,2.60
2019-05-19T18:19:59.655Z,2.37
2019-05-19T18:22:27.718Z,3.13
2019-05-19T18:24:55.691Z,2.27
2019-05-19T18:27:23.798Z,3.10
2019-05-19T18:29:52.558Z,4.10
2019-05-19T18:32:20.542Z,4.00
2019-05-19T18:34:48.585Z,3.47
2019-05-19T18:37:16.646Z,2.77
2019-05-19T18:39:44.960Z,3.20
2019-05-19T18:42:13.032Z,2.97
2019-05-19T18:44:41.003Z,3.67
2019-05-19T18:47:08.949Z,3.10
2019-05-19T18:49:37.027Z,3.07
2019-05-19T18:52:05.083Z,3.13
2019-05-19T18:54:33.150Z,3.00
2019-05-19T18:57:01.222Z,2.90
2019-05-19T18:59:29.193Z,2.83
2019-05-19T19:01:57.534Z,3.50
2019-05-19T19:04:25.522Z,2.80
2019-05-19T19:06:53.597Z,3.30
2019-05-19T19:09:21.798Z,3.13
2019-05-19T19:11:49.859Z,4.37
2019-05-19T19:14:17.846Z,3.80
2019-05-19T19:16:46.623Z,2.33
2019-05-19T19:19:15.416Z,2.27
2019-05-19T19:21:43.385Z,2.30
2019-05-19T19:24:11.350Z,2.53
2019-05-19T19:26:40.036Z,2.53
2019-05-19T19:29:10.943Z,2.27
2019-05-19T19:31:48.179Z,2.70
2019-05-19T19:34:09.706Z,2.80
2019-05-19T19:36:37.805Z,2.60
2019-05-19T19:39:06.251Z,3.10
2019-05-19T19:41:34.611Z,2.75
2019-05-19T19:44:02.649Z,2.85
2019-05-19T19:46:30.613Z,3.62
2019-05-19T19:48:58.593Z,3.15
2019-05-19T19:51:28.330Z,3.05
2019-05-19T19:53:56.645Z,4.30
2019-05-19T19:56:24.695Z,3.47
2019-05-19T19:58:52.967Z,3.52
2019-05-19T20:01:20.901Z,3.55
2019-05-19T20:03:48.897Z,3.65
2019-05-19T20:06:16.876Z,4.67
2019-05-19T20:08:45.090Z,4.40
2019-05-19T20:11:13.083Z,4.62
2019-05-19T20:13:41.612Z,5.50
2019-05-19T20:16:09.649Z,4.62
2019-05-19T20:18:37.774Z,6.12
2019-05-19T20:21:05.859Z,5.42
2019-05-19T20:23:33.926Z,5.87
2019-05-19T20:26:01.986Z,5.10
2019-05-19T20:28:30.579Z,6.50
2019-05-19T20:30:58.576Z,4.55
2019-05-19T20:33:26.555Z,6.37
2019-05-19T20:35:54.532Z,5.35
2019-05-19T20:38:22.653Z,5.28
2019-05-19T20:40:50.918Z,4.80
2019-05-19T20:43:18.935Z,5.00
2019-05-19T20:45:46.882Z,5.10
2019-05-19T20:48:16.888Z,5.72
2019-05-19T20:50:44.948Z,4.60
2019-05-19T20:53:13.374Z,5.30
2019-05-19T20:55:41.427Z,5.25
2019-05-19T20:58:09.479Z,5.33
2019-05-19T21:00:49.485Z,4.30
2019-05-19T21:03:07.958Z,5.40
2019-05-19T21:05:36.246Z,5.67
2019-05-19T21:08:04.295Z,4.15
2019-05-19T21:10:32.218Z,5.40
2019-05-19T21:13:00.501Z,4.12
2019-05-19T21:15:28.467Z,5.20
2019-05-19T21:17:56.805Z,4.87
2019-05-19T21:20:24.795Z,5.47
2019-05-19T21:22:52.864Z,4.90
2019-05-19T21:25:21.337Z,5.40
2019-05-19T21:27:49.448Z,5.28
2019-05-19T21:30:17.768Z,5.87
2019-05-19T21:32:45.645Z,5.30
2019-05-19T21:35:13.625Z,5.50
2019-05-19T21:37:41.620Z,5.08
2019-05-19T21:40:09.647Z,4.00
2019-05-19T21:42:37.922Z,5.03
2019-05-19T21:45:06.333Z,5.53
2019-05-19T21:47:34.288Z,5.58
2019-05-19T21:50:02.567Z,5.25
2019-05-19T21:52:30.753Z,4.67
2019-05-19T21:54:58.837Z,4.92
2019-05-19T21:57:26.923Z,5.55
2019-05-19T21:59:55.071Z,4.60
2019-05-19T22:02:23.616Z,4.37
2019-05-19T22:04:52.073Z,4.75
2019-05-19T22:07:27.389Z,5.42
2019-05-19T22:09:55.415Z,5.87
2019-05-19T22:12:23.773Z,5.22
2019-05-19T22:14:52.185Z,4.92
2019-05-19T22:17:20.119Z,4.15
2019-05-19T22:19:48.095Z,4.45
2019-05-19T22:22:15.986Z,4.72
2019-05-19T22:24:43.916Z,5.50
2019-05-19T22:27:11.861Z,4.90
2019-05-19T22:29:39.781Z,5.45
2019-05-19T22:32:07.634Z,4.62
2019-05-19T22:34:35.706Z,4.65
2019-05-19T22:37:03.654Z,5.28
2019-05-19T22:39:31.669Z,5.12
2019-05-19T22:42:00.314Z,4.90
2019-05-19T22:44:28.570Z,5.15
2019-05-19T22:46:56.714Z,4.95
2019-05-19T22:49:24.616Z,4.90
2019-05-19T22:51:52.619Z,4.30
2019-05-19T22:54:26.618Z,3.83
2019-05-19T22:56:55.235Z,5.03
2019-05-19T22:59:23.235Z,5.25
2019-05-19T23:01:52.182Z,5.17
2019-05-19T23:04:20.490Z,5.50
2019-05-19T23:06:48.503Z,4.72
2019-05-19T23:09:16.567Z,4.95
2019-05-19T23:11:44.532Z,5.10
2019-05-19T23:14:12.387Z,5.25
2019-05-19T23:16:40.343Z,4.55
2019-05-19T23:19:08.422Z,4.60
2019-05-19T23:21:36.624Z,4.97
2019-05-19T23:24:04.644Z,4.85
2019-05-19T23:26:32.749Z,4.35
2019-05-19T23:29:00.660Z,4.67
2019-05-19T23:31:28.622Z,5.50
2019-05-19T23:33:56.884Z,5.70
2019-05-19T23:36:24.894Z,5.67
2019-05-19T23:38:52.775Z,4.83
2019-05-19T23:41:20.812Z,5.15
2019-05-19T23:43:49.434Z,4.90
2019-05-19T23:46:17.431Z,4.45
2019-05-19T23:48:45.529Z,5.22
2019-05-19T23:51:13.586Z,5.70
2019-05-19T23:53:41.535Z,5.00
2019-05-19T23:56:09.505Z,6.05
2019-05-19T23:58:37.673Z,6.12
